createdAt,value
2023-03-06T00:00:38.549Z,99457.13
2023-03-06T00:03:07.339Z,99453.84
2023-03-06T00:05:34.643Z,99457.44
2023-03-06T00:08:01.906Z,99453.84
2023-03-06T00:10:30.648Z,99446.34
2023-03-06T00:12:58.732Z,99442.78
2023-03-06T00:15:26.715Z,99450.91
2023-03-06T00:17:54.149Z,99441.72
2023-03-06T00:20:23.036Z,99451.41
2023-03-06T00:22:50.702Z,99437.19
2023-03-06T00:25:18.838Z,99450.81
2023-03-06T00:27:46.732Z,99443.38
2023-03-06T00:30:15.514Z,99445.75
2023-03-06T00:32:42.771Z,99433.88
2023-03-06T00:35:10.559Z,99435.00
2023-03-06T00:37:39.271Z,99433.44
2023-03-06T00:40:07.159Z,99435.56
2023-03-06T00:42:34.469Z,99432.06
2023-03-06T00:45:01.808Z,99430.25
2023-03-06T00:47:29.419Z,99430.53
2023-03-06T00:49:56.751Z,99421.97
2023-03-06T00:52:24.022Z,99416.75
2023-03-06T00:54:52.749Z,99420.06
2023-03-06T00:57:20.121Z,99424.78
2023-03-06T00:59:47.398Z,99422.88
2023-03-06T01:02:14.995Z,99416.59
2023-03-06T01:04:42.389Z,99411.88
2023-03-06T01:07:09.669Z,99406.94
2023-03-06T01:09:36.924Z,99410.88
2023-03-06T01:12:05.684Z,99403.69
2023-03-06T01:14:32.964Z,99403.19
2023-03-06T01:17:00.530Z,99402.56
2023-03-06T01:19:27.799Z,99404.03
2023-03-06T01:21:55.099Z,99400.34
2023-03-06T01:24:23.920Z,99388.00
2023-03-06T01:26:51.179Z,99387.28
2023-03-06T01:29:21.112Z,99391.03
2023-03-06T01:31:48.409Z,99391.28
2023-03-06T01:34:15.670Z,99382.81
2023-03-06T01:36:42.945Z,99378.25
2023-03-06T01:39:10.268Z,99377.38
2023-03-06T01:41:37.786Z,99378.69
2023-03-06T01:44:05.165Z,99374.59
2023-03-06T01:46:41.880Z,99372.28
2023-03-06T01:49:16.014Z,99372.03
2023-03-06T01:51:46.169Z,99370.41
2023-03-06T01:54:16.233Z,99373.13
2023-03-06T01:56:45.136Z,99364.16
2023-03-06T01:59:12.709Z,99361.41
2023-03-06T02:01:42.454Z,99356.56
2023-03-06T02:04:09.936Z,99364.75
2023-03-06T02:06:38.963Z,99364.03
2023-03-06T02:09:06.997Z,99360.72
2023-03-06T02:11:34.552Z,99360.63
2023-03-06T02:14:01.967Z,99358.94
2023-03-06T02:16:30.593Z,99353.53
2023-03-06T02:18:59.818Z,99352.69
2023-03-06T02:21:32.402Z,99352.50
2023-03-06T02:24:17.619Z,99349.75
2023-03-06T02:26:47.405Z,99345.22
2023-03-06T02:29:15.653Z,99348.59
2023-03-06T02:31:42.918Z,99342.69
2023-03-06T02:34:34.553Z,99336.00
2023-03-06T02:37:03.812Z,99336.88
2023-03-06T02:39:34.442Z,99334.56
2023-03-06T02:42:03.019Z,99337.69
2023-03-06T02:44:31.302Z,99334.69
2023-03-06T02:46:58.545Z,99331.09
2023-03-06T02:49:26.562Z,99331.94
2023-03-06T02:51:53.956Z,99329.91
2023-03-06T02:54:21.248Z,99321.03
2023-03-06T02:56:48.594Z,99323.09
2023-03-06T02:59:17.201Z,99313.59
2023-03-06T03:01:44.480Z,99314.16
2023-03-06T03:04:11.866Z,99314.00
2023-03-06T03:06:39.174Z,99305.09
2023-03-06T03:09:07.305Z,99305.63
2023-03-06T03:11:34.596Z,99301.75
2023-03-06T03:14:01.843Z,99300.03
2023-03-06T03:16:30.492Z,99306.72
2023-03-06T03:18:57.729Z,99293.19
2023-03-06T03:21:25.018Z,99297.97
2023-03-06T03:23:52.273Z,99291.72
2023-03-06T03:26:20.813Z,99289.78
2023-03-06T03:28:48.102Z,99292.19
2023-03-06T03:31:15.496Z,99283.13
2023-03-06T03:33:44.119Z,99286.03
2023-03-06T03:36:11.400Z,99280.13
2023-03-06T03:38:38.673Z,99281.44
2023-03-06T03:41:06.277Z,99279.34
2023-03-06T03:43:33.546Z,99284.19
2023-03-06T03:46:00.848Z,99280.38
2023-03-06T03:48:28.250Z,99279.81
2023-03-06T03:51:02.966Z,99276.81
2023-03-06T03:53:30.215Z,99271.03
2023-03-06T03:55:57.457Z,99268.38
2023-03-06T03:58:24.711Z,99264.00
2023-03-06T04:00:52.021Z,99269.78
2023-03-06T04:03:19.556Z,99265.28
2023-03-06T04:05:46.863Z,99261.84
2023-03-06T04:08:15.455Z,99253.00
2023-03-06T04:10:42.691Z,99252.22
2023-03-06T04:13:10.321Z,99254.09
2023-03-06T04:15:37.879Z,99252.53
2023-03-06T04:18:05.317Z,99249.50
2023-03-06T04:20:32.601Z,99240.56
2023-03-06T04:22:59.854Z,99241.31
2023-03-06T04:25:28.423Z,99240.69
2023-03-06T04:27:55.723Z,99236.50
2023-03-06T04:30:24.625Z,99238.81
2023-03-06T04:32:51.883Z,99237.50
2023-03-06T04:35:19.324Z,99232.38
2023-03-06T04:37:46.578Z,99227.28
2023-03-06T04:40:17.963Z,99231.41
2023-03-06T04:42:46.635Z,99230.75
2023-03-06T04:45:14.009Z,99232.69
2023-03-06T04:47:41.285Z,99224.81
2023-03-06T04:50:09.576Z,99223.28
2023-03-06T04:52:37.042Z,99216.88
2023-03-06T04:55:08.581Z,99223.59
2023-03-06T04:57:35.966Z,99220.66
2023-03-06T05:00:05.973Z,99209.72
2023-03-06T05:02:34.221Z,99212.84
2023-03-06T05:05:01.622Z,99210.97
2023-03-06T05:07:29.069Z,99213.94
2023-03-06T05:09:56.653Z,99210.19
2023-03-06T05:12:23.905Z,99203.34
2023-03-06T05:14:51.171Z,99198.88
2023-03-06T05:17:19.759Z,99200.16
2023-03-06T05:19:47.009Z,99201.97
2023-03-06T05:22:14.279Z,99202.31
2023-03-06T05:24:41.690Z,99199.72
2023-03-06T05:27:08.949Z,99199.50
2023-03-06T05:29:36.264Z,99195.91
2023-03-06T05:32:03.662Z,99202.53
2023-03-06T05:34:32.365Z,99191.25
2023-03-06T05:37:01.704Z,99200.34
2023-03-06T05:39:29.001Z,99200.69
2023-03-06T05:41:56.291Z,99198.88
2023-03-06T05:44:23.899Z,99201.44
2023-03-06T05:46:51.529Z,99202.06
2023-03-06T05:49:18.783Z,99190.88
2023-03-06T05:51:47.361Z,99197.31
2023-03-06T05:54:14.614Z,99198.09
2023-03-06T05:56:42.956Z,99192.94
2023-03-06T05:59:10.256Z,99193.28
2023-03-06T06:01:37.529Z,99185.34
2023-03-06T06:04:04.899Z,99182.06
2023-03-06T06:06:32.181Z,99191.09
2023-03-06T06:09:00.818Z,99195.06
2023-03-06T06:11:28.095Z,99193.13
2023-03-06T06:13:55.375Z,99188.69
2023-03-06T06:16:22.766Z,99191.78
2023-03-06T06:18:50.041Z,99184.09
2023-03-06T06:21:17.294Z,99192.47
2023-03-06T06:23:44.630Z,99192.47
2023-03-06T06:26:13.266Z,99196.34
2023-03-06T06:28:40.543Z,99196.41
2023-03-06T06:31:08.505Z,99200.53
2023-03-06T06:33:36.197Z,99197.59
2023-03-06T06:36:03.547Z,99187.34
2023-03-06T06:38:30.812Z,99200.25
2023-03-06T06:41:27.168Z,99199.13
2023-03-06T06:43:46.643Z,99199.22
2023-03-06T06:46:41.905Z,99202.06
2023-03-06T06:49:02.911Z,99197.56
2023-03-06T06:51:31.396Z,99201.91
2023-03-06T06:53:58.685Z,99196.59
2023-03-06T06:56:26.057Z,99195.59
2023-03-06T06:58:57.423Z,99197.63
2023-03-06T07:01:29.056Z,99197.91
2023-03-06T07:03:56.654Z,99203.72
2023-03-06T07:06:23.954Z,99206.38
2023-03-06T07:08:51.256Z,99203.97
2023-03-06T07:11:19.223Z,99194.41
2023-03-06T07:13:47.091Z,99194.53
2023-03-06T07:16:17.230Z,99183.84
2023-03-06T07:18:45.273Z,99189.16
2023-03-06T07:21:12.758Z,99181.25
2023-03-06T07:23:40.066Z,99184.41
2023-03-06T07:26:07.480Z,99182.50
2023-03-06T07:28:49.828Z,99186.50
2023-03-06T07:31:22.069Z,99179.63
2023-03-06T07:33:49.388Z,99174.59
2023-03-06T07:36:16.961Z,99176.72
2023-03-06T07:38:44.226Z,99171.25
2023-03-06T07:41:13.472Z,99174.28
2023-03-06T07:43:41.198Z,99174.56
2023-03-06T07:46:08.822Z,99177.94
2023-03-06T07:48:37.968Z,99174.81
2023-03-06T07:51:06.383Z,99171.16
2023-03-06T07:53:34.281Z,99168.22
2023-03-06T07:56:04.651Z,99176.19
2023-03-06T07:58:31.980Z,99165.84
2023-03-06T08:01:03.503Z,99165.59
2023-03-06T08:03:30.765Z,99174.22
2023-03-06T08:06:06.640Z,99175.06
2023-03-06T08:08:34.388Z,99169.84
2023-03-06T08:11:01.650Z,99171.38
2023-03-06T08:13:28.923Z,99172.66
2023-03-06T08:15:56.649Z,99168.69
2023-03-06T08:18:23.976Z,99170.44
2023-03-06T08:20:51.230Z,99164.13
2023-03-06T08:23:19.813Z,99172.34
2023-03-06T08:25:47.078Z,99166.09
2023-03-06T08:28:14.375Z,99168.72
2023-03-06T08:30:42.550Z,99168.31
2023-03-06T08:33:09.882Z,99176.31
2023-03-06T08:35:37.234Z,99176.63
2023-03-06T08:38:04.535Z,99173.44
2023-03-06T08:40:33.110Z,99174.72
2023-03-06T08:43:00.393Z,99175.88
2023-03-06T08:45:27.696Z,99173.47
2023-03-06T08:47:55.009Z,99180.88
2023-03-06T08:50:22.282Z,99175.22
2023-03-06T08:52:49.606Z,99168.19
2023-03-06T08:55:17.015Z,99178.03
2023-03-06T08:57:46.277Z,99183.34
2023-03-06T09:00:14.314Z,99175.34
2023-03-06T09:02:41.728Z,99176.31
2023-03-06T09:05:09.597Z,99175.22
2023-03-06T09:07:36.915Z,99178.06
2023-03-06T09:10:04.416Z,99188.75
2023-03-06T09:12:37.372Z,99173.38
2023-03-06T09:15:16.055Z,99171.59
2023-03-06T09:17:43.363Z,99174.44
2023-03-06T09:20:13.172Z,99170.50
2023-03-06T09:22:42.321Z,99173.25
2023-03-06T09:25:10.476Z,99168.94
2023-03-06T09:27:37.825Z,99170.34
2023-03-06T09:30:05.582Z,99171.81
2023-03-06T09:32:34.220Z,99161.47
2023-03-06T09:35:01.768Z,99167.84
2023-03-06T09:37:29.051Z,99169.56
2023-03-06T09:39:56.341Z,99162.88
2023-03-06T09:42:24.201Z,99155.50
2023-03-06T09:44:54.703Z,99161.91
2023-03-06T09:47:36.927Z,99158.06
2023-03-06T09:50:11.119Z,99157.13
2023-03-06T09:52:43.420Z,99153.75
2023-03-06T09:55:12.558Z,99151.41
2023-03-06T09:57:42.977Z,99154.06
2023-03-06T10:00:14.543Z,99146.91
2023-03-06T10:02:43.594Z,99146.22
2023-03-06T10:05:14.752Z,99138.09
2023-03-06T10:07:45.396Z,99142.38
2023-03-06T10:10:17.764Z,99144.16
2023-03-06T10:12:48.719Z,99137.13
2023-03-06T10:15:18.645Z,99130.41
2023-03-06T10:17:46.150Z,99144.69
2023-03-06T10:20:19.547Z,99133.91
2023-03-06T10:23:00.840Z,99137.97
2023-03-06T10:25:32.661Z,99131.59
2023-03-06T10:28:04.157Z,99132.00
2023-03-06T10:30:39.578Z,99132.69
2023-03-06T10:33:10.165Z,99132.75
2023-03-06T10:35:46.193Z,99134.13
2023-03-06T10:38:16.728Z,99131.19
2023-03-06T10:40:47.263Z,99134.16
2023-03-06T10:43:14.733Z,99131.91
2023-03-06T10:45:49.445Z,99135.72
2023-03-06T10:48:19.734Z,99130.31
2023-03-06T10:50:48.598Z,99137.88
2023-03-06T10:53:23.456Z,99134.25
2023-03-06T10:55:55.646Z,99133.09
2023-03-06T10:58:24.956Z,99127.34
2023-03-06T11:01:01.234Z,99128.41
2023-03-06T11:03:28.562Z,99125.94
2023-03-06T11:05:59.302Z,99122.63
2023-03-06T11:08:26.743Z,99121.13
2023-03-06T11:10:58.453Z,99111.75
2023-03-06T11:13:27.284Z,99108.69
2023-03-06T11:16:02.974Z,99108.91
2023-03-06T11:18:34.909Z,99113.81
2023-03-06T11:21:07.112Z,99122.63
2023-03-06T11:23:38.173Z,99118.53
2023-03-06T11:26:10.710Z,99102.84
2023-03-06T11:28:40.286Z,99120.09
2023-03-06T11:31:11.229Z,99122.44
2023-03-06T11:33:41.887Z,99125.66
2023-03-06T11:36:14.226Z,99119.84
2023-03-06T11:38:45.039Z,99124.63
2023-03-06T11:41:16.721Z,99123.78
2023-03-06T11:43:49.576Z,99120.59
2023-03-06T11:46:21.474Z,99110.19
2023-03-06T11:48:52.809Z,99122.13
2023-03-06T11:51:22.815Z,99105.75
2023-03-06T11:53:50.090Z,99104.81
2023-03-06T11:56:25.877Z,99106.41
2023-03-06T11:58:57.296Z,99098.97
2023-03-06T12:01:27.965Z,99102.97
2023-03-06T12:04:13.011Z,99099.97
2023-03-06T12:06:48.144Z,99094.72
2023-03-06T12:09:24.158Z,99091.00
2023-03-06T12:12:00.665Z,99086.50
2023-03-06T12:14:37.972Z,99071.03
2023-03-06T12:17:13.390Z,99082.16
2023-03-06T12:19:55.420Z,99078.44
2023-03-06T12:22:32.308Z,99072.34
2023-03-06T12:25:07.517Z,99069.78
2023-03-06T12:27:39.190Z,99071.19
2023-03-06T12:30:17.548Z,99070.66
2023-03-06T12:32:48.963Z,99061.88
2023-03-06T12:35:23.370Z,99066.94
2023-03-06T12:37:58.869Z,99059.28
2023-03-06T12:40:44.189Z,99062.16
2023-03-06T12:43:27.540Z,99065.84
2023-03-06T12:45:57.708Z,99068.56
2023-03-06T12:48:27.652Z,99065.72
2023-03-06T12:50:55.152Z,99068.47
2023-03-06T12:53:27.223Z,99067.41
2023-03-06T12:55:55.699Z,99070.38
2023-03-06T12:58:35.567Z,99062.41
2023-03-06T13:01:10.474Z,99062.69
2023-03-06T13:03:49.417Z,99063.66
2023-03-06T13:06:34.115Z,99068.38
2023-03-06T13:09:12.068Z,99064.31
2023-03-06T13:11:54.262Z,99071.28
2023-03-06T13:14:29.199Z,99081.50
2023-03-06T13:17:16.629Z,99083.44
2023-03-06T13:19:47.063Z,99089.59
2023-03-06T13:22:15.315Z,99086.13
2023-03-06T13:24:43.904Z,99078.19
2023-03-06T13:27:12.183Z,99078.50
2023-03-06T13:29:57.491Z,99074.88
2023-03-06T13:32:29.853Z,99081.91
2023-03-06T13:34:58.569Z,99075.06
2023-03-06T13:37:39.277Z,99073.44
2023-03-06T13:40:25.440Z,99072.53
2023-03-06T13:43:03.451Z,99068.66
2023-03-06T13:45:35.293Z,99062.34
2023-03-06T13:48:24.887Z,99062.50
2023-03-06T13:50:52.130Z,99061.25
2023-03-06T13:53:38.307Z,99055.97
2023-03-06T13:56:24.491Z,99048.69
2023-03-06T13:58:58.638Z,99056.81
2023-03-06T14:01:45.076Z,99044.91
2023-03-06T14:04:32.902Z,99052.34
2023-03-06T14:07:11.172Z,99041.28
2023-03-06T14:09:39.531Z,99035.34
2023-03-06T14:12:08.093Z,99039.31
2023-03-06T14:14:43.791Z,99035.88
2023-03-06T14:17:19.105Z,99042.78
2023-03-06T14:19:46.558Z,99037.41
2023-03-06T14:22:17.561Z,99031.84
2023-03-06T14:24:52.077Z,99034.44
2023-03-06T14:27:19.650Z,99037.09
2023-03-06T14:29:48.641Z,99039.31
2023-03-06T14:32:17.641Z,99037.72
2023-03-06T14:34:46.645Z,99032.72
2023-03-06T14:37:22.048Z,99039.81
2023-03-06T14:39:49.939Z,99041.09
2023-03-06T14:42:18.779Z,99032.38
2023-03-06T14:44:46.095Z,99035.69
2023-03-06T14:47:20.658Z,99035.13
2023-03-06T14:49:47.936Z,99028.53
2023-03-06T14:52:18.920Z,99038.13
2023-03-06T14:54:47.527Z,99032.56
2023-03-06T14:57:16.055Z,99028.13
2023-03-06T14:59:46.571Z,99030.47
2023-03-06T15:02:18.953Z,99027.81
2023-03-06T15:04:47.912Z,99033.75
2023-03-06T15:07:16.925Z,99030.75
2023-03-06T15:09:45.679Z,99032.16
2023-03-06T15:12:29.694Z,99021.22
2023-03-06T15:14:59.613Z,99028.31
2023-03-06T15:17:29.594Z,99020.66
2023-03-06T15:19:57.901Z,99028.72
2023-03-06T15:22:30.055Z,99032.38
2023-03-06T15:25:10.734Z,99030.88
2023-03-06T15:27:38.551Z,99032.16
2023-03-06T15:30:21.635Z,99023.84
2023-03-06T15:32:48.918Z,99019.91
2023-03-06T15:35:37.360Z,99013.63
2023-03-06T15:38:23.361Z,99013.53
2023-03-06T15:40:55.527Z,99019.69
2023-03-06T15:43:22.831Z,99016.09
2023-03-06T15:45:51.720Z,99013.31
2023-03-06T15:48:19.071Z,99016.09
2023-03-06T15:50:46.380Z,99018.53
2023-03-06T15:53:13.729Z,99017.06
2023-03-06T15:55:41.019Z,99023.19
2023-03-06T15:58:12.446Z,99012.78
2023-03-06T16:00:40.857Z,99018.81
2023-03-06T16:03:11.378Z,99018.72
2023-03-06T16:05:39.037Z,99023.25
2023-03-06T16:08:06.796Z,99042.47
2023-03-06T16:10:36.804Z,99047.50
2023-03-06T16:13:06.696Z,99071.00
2023-03-06T16:15:37.112Z,99076.25
2023-03-06T16:18:04.880Z,99072.16
2023-03-06T16:20:33.649Z,99076.03
2023-03-06T16:23:01.071Z,99073.78
2023-03-06T16:25:28.624Z,99080.97
2023-03-06T16:27:58.814Z,99077.72
2023-03-06T16:30:27.565Z,99080.53
2023-03-06T16:32:54.860Z,99079.84
2023-03-06T16:35:22.190Z,99086.75
2023-03-06T16:37:51.080Z,99082.34
2023-03-06T16:40:20.212Z,99082.34
2023-03-06T16:42:48.079Z,99076.06
2023-03-06T16:45:15.769Z,99072.31
2023-03-06T16:47:43.251Z,99077.28
2023-03-06T16:50:20.458Z,99080.47
2023-03-06T16:52:47.751Z,99071.06
2023-03-06T16:55:16.444Z,99068.31
2023-03-06T16:57:43.748Z,99066.19
2023-03-06T17:00:12.167Z,99064.97
2023-03-06T17:02:39.808Z,99061.53
2023-03-06T17:05:08.252Z,99059.25
2023-03-06T17:07:35.978Z,99056.41
2023-03-06T17:10:03.340Z,99067.59
2023-03-06T17:12:31.961Z,99066.47
2023-03-06T17:14:59.218Z,99059.78
2023-03-06T17:17:26.899Z,99066.63
2023-03-06T17:19:54.224Z,99068.34
2023-03-06T17:22:21.759Z,99070.66
2023-03-06T17:24:49.936Z,99072.19
2023-03-06T17:27:17.294Z,99077.41
2023-03-06T17:29:46.061Z,99074.16
2023-03-06T17:32:13.823Z,99076.16
2023-03-06T17:34:44.328Z,99078.47
2023-03-06T17:37:11.645Z,99071.63
2023-03-06T17:39:39.482Z,99085.25
2023-03-06T17:42:07.253Z,99084.97
2023-03-06T17:44:34.591Z,99097.03
2023-03-06T17:47:03.770Z,99091.72
2023-03-06T17:49:31.052Z,99094.72
2023-03-06T17:51:59.732Z,99097.56
2023-03-06T17:54:29.141Z,99092.56
2023-03-06T17:56:56.472Z,99101.00
2023-03-06T17:59:24.268Z,99095.97
2023-03-06T18:01:51.594Z,99104.22
2023-03-06T18:04:20.222Z,99093.06
2023-03-06T18:06:47.530Z,99096.53
2023-03-06T18:09:14.848Z,99089.16
2023-03-06T18:11:42.354Z,99092.66
2023-03-06T18:14:10.202Z,99098.72
2023-03-06T18:16:37.522Z,99099.06
2023-03-06T18:19:04.789Z,99098.91
2023-03-06T18:21:33.422Z,99099.06
2023-03-06T18:24:00.707Z,99106.63
2023-03-06T18:26:28.779Z,99097.16
2023-03-06T18:28:57.113Z,99093.69
2023-03-06T18:31:25.712Z,99106.72
2023-03-06T18:33:54.038Z,99098.06
2023-03-06T18:36:22.727Z,99107.22
2023-03-06T18:38:51.540Z,99107.34
2023-03-06T18:41:19.312Z,99106.75
2023-03-06T18:43:46.652Z,99112.34
2023-03-06T18:46:13.892Z,99112.38
2023-03-06T18:48:41.150Z,99111.75
2023-03-06T18:51:09.148Z,99109.59
2023-03-06T18:53:36.932Z,99114.50
2023-03-06T18:56:05.793Z,99114.78
2023-03-06T18:58:33.218Z,99109.53
2023-03-06T19:01:02.104Z,99113.03
2023-03-06T19:03:29.433Z,99109.72
2023-03-06T19:05:56.748Z,99108.72
2023-03-06T19:08:24.827Z,99115.47
2023-03-06T19:10:52.078Z,99114.13
2023-03-06T19:13:20.643Z,99118.13
2023-03-06T19:15:51.375Z,99117.63
2023-03-06T19:18:19.248Z,99121.13
2023-03-06T19:20:46.897Z,99111.28
2023-03-06T19:23:14.309Z,99118.94
2023-03-06T19:25:42.807Z,99118.84
2023-03-06T19:28:10.813Z,99115.91
2023-03-06T19:30:41.645Z,99122.09
2023-03-06T19:33:10.831Z,99110.72
2023-03-06T19:35:38.160Z,99108.50
2023-03-06T19:38:05.962Z,99110.75
2023-03-06T19:40:34.041Z,99113.06
2023-03-06T19:43:01.293Z,99107.13
2023-03-06T19:45:28.568Z,99107.97
2023-03-06T19:48:00.703Z,99097.56
2023-03-06T19:50:29.511Z,99102.47
2023-03-06T19:52:57.277Z,99109.44
2023-03-06T19:55:26.327Z,99112.31
2023-03-06T19:57:54.432Z,99107.03
2023-03-06T20:00:22.062Z,99107.91
2023-03-06T20:02:49.469Z,99110.06
2023-03-06T20:05:18.234Z,99106.34
2023-03-06T20:07:45.509Z,99100.75
2023-03-06T20:10:12.912Z,99105.69
2023-03-06T20:12:40.345Z,99106.72
2023-03-06T20:15:09.250Z,99095.78
2023-03-06T20:17:38.321Z,99099.59
2023-03-06T20:20:07.375Z,99106.19
2023-03-06T20:22:37.281Z,99104.97
2023-03-06T20:25:08.319Z,99100.34
2023-03-06T20:27:38.142Z,99109.34
2023-03-06T20:30:08.017Z,99097.97
2023-03-06T20:32:35.480Z,99099.16
2023-03-06T20:35:03.472Z,99097.47
2023-03-06T20:37:30.897Z,99100.66
2023-03-06T20:40:00.453Z,99104.16
2023-03-06T20:42:27.831Z,99096.97
2023-03-06T20:44:55.797Z,99097.25
2023-03-06T20:47:23.165Z,99098.13
2023-03-06T20:49:50.428Z,99100.25
2023-03-06T20:52:17.722Z,99097.22
2023-03-06T20:54:45.784Z,99102.84
2023-03-06T20:57:14.473Z,99102.50
2023-03-06T20:59:43.664Z,99089.84
2023-03-06T21:02:11.889Z,99088.56
2023-03-06T21:04:40.907Z,99080.28
2023-03-06T21:07:08.252Z,99083.59
2023-03-06T21:09:37.648Z,99079.69
2023-03-06T21:12:05.215Z,99073.94
2023-03-06T21:14:33.900Z,99072.63
2023-03-06T21:17:02.249Z,99066.41
2023-03-06T21:19:32.574Z,99060.91
2023-03-06T21:21:59.829Z,99048.63
2023-03-06T21:24:27.111Z,99056.31
2023-03-06T21:26:54.421Z,99049.63
2023-03-06T21:29:21.699Z,99052.78
2023-03-06T21:31:50.366Z,99052.91
2023-03-06T21:34:17.714Z,99045.09
2023-03-06T21:36:45.562Z,99054.41
2023-03-06T21:39:14.266Z,99050.41
2023-03-06T21:41:42.231Z,99047.41
2023-03-06T21:44:09.565Z,99057.66
2023-03-06T21:46:37.145Z,99048.09
2023-03-06T21:49:05.923Z,99042.94
2023-03-06T21:51:33.499Z,99045.44
2023-03-06T21:54:02.210Z,99039.72
2023-03-06T21:56:30.418Z,99038.19
2023-03-06T21:58:58.519Z,99034.63
2023-03-06T22:01:27.490Z,99042.56
2023-03-06T22:03:55.631Z,99037.06
2023-03-06T22:06:25.699Z,99035.50
2023-03-06T22:08:54.236Z,99037.25
2023-03-06T22:11:22.521Z,99040.78
2023-03-06T22:13:50.279Z,99038.28
2023-03-06T22:16:18.155Z,99038.28
2023-03-06T22:18:46.353Z,99033.13
2023-03-06T22:21:14.873Z,99034.47
2023-03-06T22:23:43.924Z,99033.59
2023-03-06T22:26:12.556Z,99031.31
2023-03-06T22:28:40.188Z,99025.06
2023-03-06T22:31:08.050Z,99027.03
2023-03-06T22:33:35.385Z,99026.00
2023-03-06T22:36:06.005Z,99028.22
2023-03-06T22:38:33.439Z,99026.84
2023-03-06T22:41:02.318Z,99017.63
2023-03-06T22:43:29.622Z,99015.06
2023-03-06T22:46:01.152Z,99009.13
2023-03-06T22:48:28.524Z,99006.91
2023-03-06T22:50:55.792Z,99006.41
2023-03-06T22:53:23.052Z,99008.00
2023-03-06T22:55:50.339Z,98998.78
2023-03-06T22:58:18.920Z,99008.59
2023-03-06T23:00:46.188Z,99011.94
2023-03-06T23:03:13.471Z,99024.03
2023-03-06T23:05:41.150Z,99013.63
2023-03-06T23:08:08.418Z,99018.47
2023-03-06T23:10:37.390Z,99018.13
2023-03-06T23:13:04.688Z,99007.75
2023-03-06T23:15:33.409Z,98994.00
2023-03-06T23:18:01.063Z,99010.16
2023-03-06T23:20:28.359Z,98994.78
2023-03-06T23:22:55.669Z,98995.63
2023-03-06T23:25:23.020Z,98998.09
2023-03-06T23:27:50.328Z,98993.44
2023-03-06T23:30:17.772Z,98984.25
2023-03-06T23:32:46.358Z,98989.22
2023-03-06T23:35:13.888Z,98981.34
2023-03-06T23:37:41.193Z,98981.50
2023-03-06T23:40:09.837Z,98978.75
2023-03-06T23:42:37.176Z,98983.50
2023-03-06T23:45:05.142Z,98976.22
2023-03-06T23:47:32.892Z,98968.63
2023-03-06T23:50:01.512Z,98968.63
2023-03-06T23:52:28.792Z,98959.38
2023-03-06T23:54:56.059Z,98967.91
2023-03-06T23:57:23.310Z,98963.34
2023-03-06T23:59:50.599Z,98956.97
